CheckWX is a tool to help pilots better visualize weather data.  It is not intended as a substitute for an official pre-flight weather briefing.

12:27:39 UTC

MTCH TAF
Cap Haitien International Airport
Cap Haitien, Haiti
TAF MTCH 211611Z 2118/2218 02014KT 9000 SCT026CB BKN060 TEMPO 2122/2206 4000 TSRA BECMG 2208/2212 VRB02KT 9000 NSW FEW025

Mar-21@
18:00 UTC

Mar-21 @ 18:00 UTC

Mar-22@
08:00 UTC

Mar-22 @ 08:00 UTC

TAF MTCH 211611Z 2118/2218 02014KT 9000 SCT026CB BKN060

Expired

Wind
  • 020° at 14 KTS
Cloud Levels
  • Scattered at 2,600' AGL
  • Broken at 6,000' AGL

Mar-21@
22:00 UTC

Mar-21 @ 22:00 UTC

Mar-22@
06:00 UTC

Mar-22 @ 06:00 UTC

TEMPO 2122/2206 4000 TSRA

Expired

Conditions
Thunderstorm, Rain

Mar-22@
08:00 UTC

Mar-22 @ 08:00 UTC

Mar-22@
18:00 UTC

Mar-22 @ 18:00 UTC

BECMG 2208/2212 VRB02KT 9000 NSW FEW025

Becoming

Becoming Conditions expected by Fri, Mar 22, 2019 @ 12:00 UTC

Wind
  • Variable at 2 KTS
Conditions
No significant weather
Cloud Levels
  • Few at 2,500' AGL